sensor_id;sensor_type;location;lat;lon;timestamp;P1;P2;P0
49644;PMS5003;36494;50.730;-1.932;2023-06-22T00:02:05;17;17;
49644;PMS5003;36494;50.730;-1.932;2023-06-22T00:04:30;16;16;
49644;PMS5003;36494;50.730;-1.932;2023-06-22T00:06:56;24;23;
49644;PMS5003;36494;50.730;-1.932;2023-06-22T00:09:22;16;16;
49644;PMS5003;36494;50.730;-1.932;2023-06-22T00:11:48;16;16;
49644;PMS5003;36494;50.730;-1.932;2023-06-22T00:14:13;17;16;
49644;PMS5003;36494;50.730;-1.932;2023-06-22T00:16:38;17;17;
49644;PMS5003;36494;50.730;-1.932;2023-06-22T00:19:04;19;18;
49644;PMS5003;36494;50.730;-1.932;2023-06-22T00:21:29;20;18;
49644;PMS5003;36494;50.730;-1.932;2023-06-22T00:23:55;17;15;
49644;PMS5003;36494;50.730;-1.932;2023-06-22T00:26:20;18;18;
49644;PMS5003;36494;50.730;-1.932;2023-06-22T00:28:46;16;15;
49644;PMS5003;36494;50.730;-1.932;2023-06-22T00:31:11;16;15;
49644;PMS5003;36494;50.730;-1.932;2023-06-22T00:33:36;11;11;
49644;PMS5003;36494;50.730;-1.932;2023-06-22T00:36:01;15;14;
49644;PMS5003;36494;50.730;-1.932;2023-06-22T00:38:27;17;16;
49644;PMS5003;36494;50.730;-1.932;2023-06-22T00:40:52;12;12;
49644;PMS5003;36494;50.730;-1.932;2023-06-22T00:43:18;17;15;
49644;PMS5003;36494;50.730;-1.932;2023-06-22T00:45:43;13;12;
49644;PMS5003;36494;50.730;-1.932;2023-06-22T00:48:09;16;15;
49644;PMS5003;36494;50.730;-1.932;2023-06-22T00:50:34;15;13;
49644;PMS5003;36494;50.730;-1.932;2023-06-22T00:53:00;17;16;
49644;PMS5003;36494;50.730;-1.932;2023-06-22T00:55:25;15;13;
49644;PMS5003;36494;50.730;-1.932;2023-06-22T00:57:50;14;14;
49644;PMS5003;36494;50.730;-1.932;2023-06-22T01:00:16;14;12;
49644;PMS5003;36494;50.730;-1.932;2023-06-22T01:02:42;15;14;
49644;PMS5003;36494;50.730;-1.932;2023-06-22T01:05:07;12;11;
49644;PMS5003;36494;50.730;-1.932;2023-06-22T01:07:35;15;14;
49644;PMS5003;36494;50.730;-1.932;2023-06-22T01:09:59;15;13;
49644;PMS5003;36494;50.730;-1.932;2023-06-22T01:12:23;15;15;
49644;PMS5003;36494;50.730;-1.932;2023-06-22T01:14:50;16;15;
49644;PMS5003;36494;50.730;-1.932;2023-06-22T01:17:14;19;17;
49644;PMS5003;36494;50.730;-1.932;2023-06-22T01:19:45;16;16;
49644;PMS5003;36494;50.730;-1.932;2023-06-22T01:22:05;16;16;
49644;PMS5003;36494;50.730;-1.932;2023-06-22T01:24:32;14;13;
49644;PMS5003;36494;50.730;-1.932;2023-06-22T01:26:58;16;16;
49644;PMS5003;36494;50.730;-1.932;2023-06-22T01:29:21;13;13;
49644;PMS5003;36494;50.730;-1.932;2023-06-22T01:31:47;19;17;
49644;PMS5003;36494;50.730;-1.932;2023-06-22T01:34:12;15;14;
49644;PMS5003;36494;50.730;-1.932;2023-06-22T01:36:38;12;12;
49644;PMS5003;36494;50.730;-1.932;2023-06-22T01:39:04;18;16;
49644;PMS5003;36494;50.730;-1.932;2023-06-22T01:41:30;15;15;
49644;PMS5003;36494;50.730;-1.932;2023-06-22T01:43:55;14;14;
49644;PMS5003;36494;50.730;-1.932;2023-06-22T01:46:20;18;16;
49644;PMS5003;36494;50.730;-1.932;2023-06-22T01:48:46;18;18;
49644;PMS5003;36494;50.730;-1.932;2023-06-22T01:51:11;16;15;
49644;PMS5003;36494;50.730;-1.932;2023-06-22T01:53:37;15;15;
49644;PMS5003;36494;50.730;-1.932;2023-06-22T01:56:02;16;15;
49644;PMS5003;36494;50.730;-1.932;2023-06-22T01:58:27;17;17;
49644;PMS5003;36494;50.730;-1.932;2023-06-22T02:00:55;18;18;
49644;PMS5003;36494;50.730;-1.932;2023-06-22T02:03:18;17;16;
49644;PMS5003;36494;50.730;-1.932;2023-06-22T02:05:46;15;15;
49644;PMS5003;36494;50.730;-1.932;2023-06-22T02:08:10;15;13;
49644;PMS5003;36494;50.730;-1.932;2023-06-22T02:10:36;13;12;
49644;PMS5003;36494;50.730;-1.932;2023-06-22T02:13:01;13;12;
49644;PMS5003;36494;50.730;-1.932;2023-06-22T02:15:27;16;16;
49644;PMS5003;36494;50.730;-1.932;2023-06-22T02:17:52;17;14;
49644;PMS5003;36494;50.730;-1.932;2023-06-22T02:20:18;14;14;
49644;PMS5003;36494;50.730;-1.932;2023-06-22T02:22:43;16;16;
49644;PMS5003;36494;50.730;-1.932;2023-06-22T02:25:08;19;19;
49644;PMS5003;36494;50.730;-1.932;2023-06-22T02:27:34;13;13;
49644;PMS5003;36494;50.730;-1.932;2023-06-22T02:29:59;16;16;
49644;PMS5003;36494;50.730;-1.932;2023-06-22T02:32:25;14;13;
49644;PMS5003;36494;50.730;-1.932;2023-06-22T02:34:52;17;15;
49644;PMS5003;36494;50.730;-1.932;2023-06-22T02:37:17;15;14;
49644;PMS5003;36494;50.730;-1.932;2023-06-22T02:39:42;17;17;
49644;PMS5003;36494;50.730;-1.932;2023-06-22T02:42:07;15;15;
49644;PMS5003;36494;50.730;-1.932;2023-06-22T02:44:33;16;16;
49644;PMS5003;36494;50.730;-1.932;2023-06-22T02:46:58;17;17;
49644;PMS5003;36494;50.730;-1.932;2023-06-22T02:49:24;17;16;
49644;PMS5003;36494;50.730;-1.932;2023-06-22T02:51:50;17;16;
49644;PMS5003;36494;50.730;-1.932;2023-06-22T02:54:15;18;17;
49644;PMS5003;36494;50.730;-1.932;2023-06-22T02:56:40;19;18;
49644;PMS5003;36494;50.730;-1.932;2023-06-22T02:59:05;19;17;
49644;PMS5003;36494;50.730;-1.932;2023-06-22T03:01:31;16;16;
49644;PMS5003;36494;50.730;-1.932;2023-06-22T03:03:57;18;17;
49644;PMS5003;36494;50.730;-1.932;2023-06-22T03:06:22;21;18;
49644;PMS5003;36494;50.730;-1.932;2023-06-22T03:08:47;17;14;
49644;PMS5003;36494;50.730;-1.932;2023-06-22T03:11:12;15;13;
49644;PMS5003;36494;50.730;-1.932;2023-06-22T03:13:38;19;16;
49644;PMS5003;36494;50.730;-1.932;2023-06-22T03:16:04;14;14;
49644;PMS5003;36494;50.730;-1.932;2023-06-22T03:18:29;14;13;
49644;PMS5003;36494;50.730;-1.932;2023-06-22T03:20:54;14;14;
49644;PMS5003;36494;50.730;-1.932;2023-06-22T03:23:20;14;13;
49644;PMS5003;36494;50.730;-1.932;2023-06-22T03:25:46;16;16;
49644;PMS5003;36494;50.730;-1.932;2023-06-22T03:28:11;14;12;
49644;PMS5003;36494;50.730;-1.932;2023-06-22T03:30:36;16;16;
49644;PMS5003;36494;50.730;-1.932;2023-06-22T03:33:02;13;13;
49644;PMS5003;36494;50.730;-1.932;2023-06-22T03:35:27;13;13;
49644;PMS5003;36494;50.730;-1.932;2023-06-22T03:37:52;16;15;
49644;PMS5003;36494;50.730;-1.932;2023-06-22T03:40:18;17;16;
49644;PMS5003;36494;50.730;-1.932;2023-06-22T03:42:44;15;14;
49644;PMS5003;36494;50.730;-1.932;2023-06-22T03:45:10;15;14;
49644;PMS5003;36494;50.730;-1.932;2023-06-22T03:47:35;16;15;
49644;PMS5003;36494;50.730;-1.932;2023-06-22T03:50:01;12;12;
49644;PMS5003;36494;50.730;-1.932;2023-06-22T03:52:27;16;15;
49644;PMS5003;36494;50.730;-1.932;2023-06-22T03:54:52;15;14;
49644;PMS5003;36494;50.730;-1.932;2023-06-22T03:57:17;17;16;
49644;PMS5003;36494;50.730;-1.932;2023-06-22T03:59:43;16;16;
49644;PMS5003;36494;50.730;-1.932;2023-06-22T04:02:08;16;16;
49644;PMS5003;36494;50.730;-1.932;2023-06-22T04:04:34;13;13;
49644;PMS5003;36494;50.730;-1.932;2023-06-22T04:07:00;14;13;
49644;PMS5003;36494;50.730;-1.932;2023-06-22T04:09:25;17;16;
49644;PMS5003;36494;50.730;-1.932;2023-06-22T04:11:51;17;17;
49644;PMS5003;36494;50.730;-1.932;2023-06-22T04:14:16;16;16;
49644;PMS5003;36494;50.730;-1.932;2023-06-22T04:16:42;19;16;
49644;PMS5003;36494;50.730;-1.932;2023-06-22T04:19:07;23;20;
49644;PMS5003;36494;50.730;-1.932;2023-06-22T04:21:32;15;14;
49644;PMS5003;36494;50.730;-1.932;2023-06-22T04:23:57;19;18;
49644;PMS5003;36494;50.730;-1.932;2023-06-22T04:26:22;18;18;
49644;PMS5003;36494;50.730;-1.932;2023-06-22T04:28:48;21;19;
49644;PMS5003;36494;50.730;-1.932;2023-06-22T04:31:13;21;19;
49644;PMS5003;36494;50.730;-1.932;2023-06-22T04:33:38;19;17;
49644;PMS5003;36494;50.730;-1.932;2023-06-22T04:36:03;19;19;
49644;PMS5003;36494;50.730;-1.932;2023-06-22T04:38:29;23;21;
49644;PMS5003;36494;50.730;-1.932;2023-06-22T04:40:54;25;25;
49644;PMS5003;36494;50.730;-1.932;2023-06-22T04:43:20;18;18;
49644;PMS5003;36494;50.730;-1.932;2023-06-22T04:45:45;19;19;
49644;PMS5003;36494;50.730;-1.932;2023-06-22T04:48:11;16;16;
49644;PMS5003;36494;50.730;-1.932;2023-06-22T04:50:36;19;19;
49644;PMS5003;36494;50.730;-1.932;2023-06-22T04:53:01;19;19;
49644;PMS5003;36494;50.730;-1.932;2023-06-22T04:55:27;21;20;
49644;PMS5003;36494;50.730;-1.932;2023-06-22T04:57:52;20;19;
49644;PMS5003;36494;50.730;-1.932;2023-06-22T05:00:18;21;18;
49644;PMS5003;36494;50.730;-1.932;2023-06-22T05:02:43;19;18;
49644;PMS5003;36494;50.730;-1.932;2023-06-22T05:05:09;17;17;
49644;PMS5003;36494;50.730;-1.932;2023-06-22T05:07:34;21;18;
49644;PMS5003;36494;50.730;-1.932;2023-06-22T05:10:00;15;14;
49644;PMS5003;36494;50.730;-1.932;2023-06-22T05:12:25;16;16;
49644;PMS5003;36494;50.730;-1.932;2023-06-22T05:14:51;25;24;
49644;PMS5003;36494;50.730;-1.932;2023-06-22T05:17:16;18;17;
49644;PMS5003;36494;50.730;-1.932;2023-06-22T05:19:42;19;19;
49644;PMS5003;36494;50.730;-1.932;2023-06-22T05:22:07;17;17;
49644;PMS5003;36494;50.730;-1.932;2023-06-22T05:24:33;19;18;
49644;PMS5003;36494;50.730;-1.932;2023-06-22T05:26:58;19;17;
49644;PMS5003;36494;50.730;-1.932;2023-06-22T05:29:23;18;18;
49644;PMS5003;36494;50.730;-1.932;2023-06-22T05:31:49;21;21;
49644;PMS5003;36494;50.730;-1.932;2023-06-22T05:34:14;19;18;
49644;PMS5003;36494;50.730;-1.932;2023-06-22T05:36:40;22;20;
49644;PMS5003;36494;50.730;-1.932;2023-06-22T05:39:11;20;18;
49644;PMS5003;36494;50.730;-1.932;2023-06-22T05:41:31;20;19;
49644;PMS5003;36494;50.730;-1.932;2023-06-22T05:43:56;20;20;
49644;PMS5003;36494;50.730;-1.932;2023-06-22T05:46:22;20;18;
49644;PMS5003;36494;50.730;-1.932;2023-06-22T05:48:48;21;20;
49644;PMS5003;36494;50.730;-1.932;2023-06-22T05:51:13;19;18;
49644;PMS5003;36494;50.730;-1.932;2023-06-22T05:53:39;22;22;
49644;PMS5003;36494;50.730;-1.932;2023-06-22T05:56:04;15;15;
49644;PMS5003;36494;50.730;-1.932;2023-06-22T05:58:29;17;17;
49644;PMS5003;36494;50.730;-1.932;2023-06-22T06:00:54;20;19;
49644;PMS5003;36494;50.730;-1.932;2023-06-22T06:03:19;22;21;
49644;PMS5003;36494;50.730;-1.932;2023-06-22T06:05:44;19;18;
49644;PMS5003;36494;50.730;-1.932;2023-06-22T06:08:10;25;25;
49644;PMS5003;36494;50.730;-1.932;2023-06-22T06:10:35;29;26;
49644;PMS5003;36494;50.730;-1.932;2023-06-22T06:13:00;20;20;
49644;PMS5003;36494;50.730;-1.932;2023-06-22T06:15:26;22;21;
49644;PMS5003;36494;50.730;-1.932;2023-06-22T06:17:52;23;22;
49644;PMS5003;36494;50.730;-1.932;2023-06-22T06:20:18;30;27;
49644;PMS5003;36494;50.730;-1.932;2023-06-22T06:22:42;25;23;
49644;PMS5003;36494;50.730;-1.932;2023-06-22T06:25:07;21;21;
49644;PMS5003;36494;50.730;-1.932;2023-06-22T06:27:32;23;23;
49644;PMS5003;36494;50.730;-1.932;2023-06-22T06:29:58;29;27;
49644;PMS5003;36494;50.730;-1.932;2023-06-22T06:32:24;22;21;
49644;PMS5003;36494;50.730;-1.932;2023-06-22T06:34:49;24;24;
49644;PMS5003;36494;50.730;-1.932;2023-06-22T06:37:14;28;27;
49644;PMS5003;36494;50.730;-1.932;2023-06-22T06:39:40;27;25;
49644;PMS5003;36494;50.730;-1.932;2023-06-22T06:42:06;27;27;
49644;PMS5003;36494;50.730;-1.932;2023-06-22T06:44:31;25;24;
49644;PMS5003;36494;50.730;-1.932;2023-06-22T06:46:57;27;24;
49644;PMS5003;36494;50.730;-1.932;2023-06-22T06:49:23;26;25;
49644;PMS5003;36494;50.730;-1.932;2023-06-22T06:51:48;22;20;
49644;PMS5003;36494;50.730;-1.932;2023-06-22T06:54:14;23;22;
49644;PMS5003;36494;50.730;-1.932;2023-06-22T06:56:40;27;27;
49644;PMS5003;36494;50.730;-1.932;2023-06-22T06:59:05;22;21;
49644;PMS5003;36494;50.730;-1.932;2023-06-22T07:01:31;26;26;
49644;PMS5003;36494;50.730;-1.932;2023-06-22T07:03:56;26;25;
49644;PMS5003;36494;50.730;-1.932;2023-06-22T07:06:22;23;23;
49644;PMS5003;36494;50.730;-1.932;2023-06-22T07:08:47;22;22;
49644;PMS5003;36494;50.730;-1.932;2023-06-22T07:11:13;21;20;
49644;PMS5003;36494;50.730;-1.932;2023-06-22T07:13:38;24;22;
49644;PMS5003;36494;50.730;-1.932;2023-06-22T07:16:03;22;21;
49644;PMS5003;36494;50.730;-1.932;2023-06-22T07:18:28;21;20;
49644;PMS5003;36494;50.730;-1.932;2023-06-22T07:20:54;24;23;
49644;PMS5003;36494;50.730;-1.932;2023-06-22T07:23:19;25;25;
49644;PMS5003;36494;50.730;-1.932;2023-06-22T07:25:44;19;19;
49644;PMS5003;36494;50.730;-1.932;2023-06-22T07:28:09;21;21;
49644;PMS5003;36494;50.730;-1.932;2023-06-22T07:30:35;20;20;
49644;PMS5003;36494;50.730;-1.932;2023-06-22T07:33:00;29;27;
49644;PMS5003;36494;50.730;-1.932;2023-06-22T07:35:25;28;26;
49644;PMS5003;36494;50.730;-1.932;2023-06-22T07:37:51;23;19;
49644;PMS5003;36494;50.730;-1.932;2023-06-22T07:40:16;24;24;
49644;PMS5003;36494;50.730;-1.932;2023-06-22T07:42:41;20;19;
49644;PMS5003;36494;50.730;-1.932;2023-06-22T07:45:07;18;18;
49644;PMS5003;36494;50.730;-1.932;2023-06-22T07:47:32;19;19;
49644;PMS5003;36494;50.730;-1.932;2023-06-22T07:49:58;20;19;
49644;PMS5003;36494;50.730;-1.932;2023-06-22T07:52:23;21;21;
49644;PMS5003;36494;50.730;-1.932;2023-06-22T07:54:49;22;19;
49644;PMS5003;36494;50.730;-1.932;2023-06-22T07:57:14;18;18;
49644;PMS5003;36494;50.730;-1.932;2023-06-22T07:59:40;19;18;
49644;PMS5003;36494;50.730;-1.932;2023-06-22T08:02:05;25;19;
49644;PMS5003;36494;50.730;-1.932;2023-06-22T08:04:30;18;18;
49644;PMS5003;36494;50.730;-1.932;2023-06-22T08:06:56;18;18;
49644;PMS5003;36494;50.730;-1.932;2023-06-22T08:09:21;16;16;
49644;PMS5003;36494;50.730;-1.932;2023-06-22T08:11:47;16;15;
49644;PMS5003;36494;50.730;-1.932;2023-06-22T08:14:12;17;17;
49644;PMS5003;36494;50.730;-1.932;2023-06-22T08:16:38;16;16;
49644;PMS5003;36494;50.730;-1.932;2023-06-22T08:19:04;16;16;
49644;PMS5003;36494;50.730;-1.932;2023-06-22T08:21:30;15;14;
49644;PMS5003;36494;50.730;-1.932;2023-06-22T08:23:56;15;14;
49644;PMS5003;36494;50.730;-1.932;2023-06-22T08:26:21;16;15;
49644;PMS5003;36494;50.730;-1.932;2023-06-22T08:28:46;14;14;
49644;PMS5003;36494;50.730;-1.932;2023-06-22T08:31:12;14;14;
49644;PMS5003;36494;50.730;-1.932;2023-06-22T08:33:37;15;13;
49644;PMS5003;36494;50.730;-1.932;2023-06-22T08:36:03;15;15;
49644;PMS5003;36494;50.730;-1.932;2023-06-22T08:38:28;12;11;
49644;PMS5003;36494;50.730;-1.932;2023-06-22T08:40:54;10;10;
49644;PMS5003;36494;50.730;-1.932;2023-06-22T08:43:20;16;15;
49644;PMS5003;36494;50.730;-1.932;2023-06-22T08:45:45;9;9;
49644;PMS5003;36494;50.730;-1.932;2023-06-22T08:48:10;13;12;
49644;PMS5003;36494;50.730;-1.932;2023-06-22T08:50:36;10;9;
49644;PMS5003;36494;50.730;-1.932;2023-06-22T08:53:01;13;12;
49644;PMS5003;36494;50.730;-1.932;2023-06-22T08:55:26;13;13;
49644;PMS5003;36494;50.730;-1.932;2023-06-22T08:57:52;13;12;
49644;PMS5003;36494;50.730;-1.932;2023-06-22T09:00:18;12;11;
49644;PMS5003;36494;50.730;-1.932;2023-06-22T09:02:43;11;11;
49644;PMS5003;36494;50.730;-1.932;2023-06-22T09:05:08;10;10;
49644;PMS5003;36494;50.730;-1.932;2023-06-22T09:07:34;9;8;
49644;PMS5003;36494;50.730;-1.932;2023-06-22T09:09:59;10;9;
49644;PMS5003;36494;50.730;-1.932;2023-06-22T09:12:25;10;9;
49644;PMS5003;36494;50.730;-1.932;2023-06-22T09:14:51;13;12;
49644;PMS5003;36494;50.730;-1.932;2023-06-22T09:17:16;12;9;
49644;PMS5003;36494;50.730;-1.932;2023-06-22T09:19:41;8;8;
49644;PMS5003;36494;50.730;-1.932;2023-06-22T09:22:07;10;10;
49644;PMS5003;36494;50.730;-1.932;2023-06-22T09:24:32;7;7;
49644;PMS5003;36494;50.730;-1.932;2023-06-22T09:26:57;10;8;
49644;PMS5003;36494;50.730;-1.932;2023-06-22T09:29:23;12;9;
49644;PMS5003;36494;50.730;-1.932;2023-06-22T09:31:48;10;10;
49644;PMS5003;36494;50.730;-1.932;2023-06-22T09:34:14;10;8;
49644;PMS5003;36494;50.730;-1.932;2023-06-22T09:36:41;12;11;
49644;PMS5003;36494;50.730;-1.932;2023-06-22T09:39:05;13;13;
49644;PMS5003;36494;50.730;-1.932;2023-06-22T09:41:30;9;8;
49644;PMS5003;36494;50.730;-1.932;2023-06-22T09:43:56;12;12;
49644;PMS5003;36494;50.730;-1.932;2023-06-22T09:46:22;8;8;
49644;PMS5003;36494;50.730;-1.932;2023-06-22T09:48:47;6;6;
49644;PMS5003;36494;50.730;-1.932;2023-06-22T09:51:12;9;9;
49644;PMS5003;36494;50.730;-1.932;2023-06-22T09:53:37;10;10;
49644;PMS5003;36494;50.730;-1.932;2023-06-22T09:56:03;8;8;
49644;PMS5003;36494;50.730;-1.932;2023-06-22T09:58:28;10;10;
49644;PMS5003;36494;50.730;-1.932;2023-06-22T10:00:54;8;7;
49644;PMS5003;36494;50.730;-1.932;2023-06-22T10:03:19;12;12;
49644;PMS5003;36494;50.730;-1.932;2023-06-22T10:05:44;7;7;
49644;PMS5003;36494;50.730;-1.932;2023-06-22T10:08:09;12;11;
49644;PMS5003;36494;50.730;-1.932;2023-06-22T10:10:35;9;8;
49644;PMS5003;36494;50.730;-1.932;2023-06-22T10:13:04;8;8;
49644;PMS5003;36494;50.730;-1.932;2023-06-22T10:15:25;9;8;
49644;PMS5003;36494;50.730;-1.932;2023-06-22T10:17:50;9;9;
49644;PMS5003;36494;50.730;-1.932;2023-06-22T10:20:16;13;13;
49644;PMS5003;36494;50.730;-1.932;2023-06-22T10:22:42;10;10;
49644;PMS5003;36494;50.730;-1.932;2023-06-22T10:25:07;10;10;
49644;PMS5003;36494;50.730;-1.932;2023-06-22T10:27:32;12;12;
49644;PMS5003;36494;50.730;-1.932;2023-06-22T10:29:57;14;11;
49644;PMS5003;36494;50.730;-1.932;2023-06-22T10:32:22;12;12;
49644;PMS5003;36494;50.730;-1.932;2023-06-22T10:34:48;13;12;
49644;PMS5003;36494;50.730;-1.932;2023-06-22T10:37:13;11;11;
49644;PMS5003;36494;50.730;-1.932;2023-06-22T10:39:39;13;13;
49644;PMS5003;36494;50.730;-1.932;2023-06-22T10:42:05;10;9;
49644;PMS5003;36494;50.730;-1.932;2023-06-22T10:44:30;9;9;
49644;PMS5003;36494;50.730;-1.932;2023-06-22T10:46:55;10;10;
49644;PMS5003;36494;50.730;-1.932;2023-06-22T10:49:21;13;12;
49644;PMS5003;36494;50.730;-1.932;2023-06-22T10:51:46;9;9;
49644;PMS5003;36494;50.730;-1.932;2023-06-22T10:54:12;9;9;
49644;PMS5003;36494;50.730;-1.932;2023-06-22T10:56:37;14;12;
49644;PMS5003;36494;50.730;-1.932;2023-06-22T10:59:03;9;9;
49644;PMS5003;36494;50.730;-1.932;2023-06-22T11:01:28;11;11;
49644;PMS5003;36494;50.730;-1.932;2023-06-22T11:03:53;9;9;
49644;PMS5003;36494;50.730;-1.932;2023-06-22T11:06:18;11;11;
49644;PMS5003;36494;50.730;-1.932;2023-06-22T11:08:44;11;10;
49644;PMS5003;36494;50.730;-1.932;2023-06-22T11:11:09;10;9;
49644;PMS5003;36494;50.730;-1.932;2023-06-22T11:13:35;7;7;
49644;PMS5003;36494;50.730;-1.932;2023-06-22T11:16:00;10;8;
49644;PMS5003;36494;50.730;-1.932;2023-06-22T11:18:26;12;11;
49644;PMS5003;36494;50.730;-1.932;2023-06-22T11:20:51;7;7;
49644;PMS5003;36494;50.730;-1.932;2023-06-22T11:23:17;10;9;
49644;PMS5003;36494;50.730;-1.932;2023-06-22T11:25:42;9;8;
49644;PMS5003;36494;50.730;-1.932;2023-06-22T11:28:07;7;6;
49644;PMS5003;36494;50.730;-1.932;2023-06-22T11:30:32;7;7;
49644;PMS5003;36494;50.730;-1.932;2023-06-22T11:32:58;7;7;
49644;PMS5003;36494;50.730;-1.932;2023-06-22T11:35:23;10;9;
49644;PMS5003;36494;50.730;-1.932;2023-06-22T11:37:49;8;8;
49644;PMS5003;36494;50.730;-1.932;2023-06-22T11:40:15;10;10;
49644;PMS5003;36494;50.730;-1.932;2023-06-22T11:42:40;9;8;
49644;PMS5003;36494;50.730;-1.932;2023-06-22T11:45:06;9;8;
49644;PMS5003;36494;50.730;-1.932;2023-06-22T11:47:30;9;9;
49644;PMS5003;36494;50.730;-1.932;2023-06-22T11:49:55;9;9;
49644;PMS5003;36494;50.730;-1.932;2023-06-22T11:52:21;8;8;
49644;PMS5003;36494;50.730;-1.932;2023-06-22T11:54:46;10;10;
49644;PMS5003;36494;50.730;-1.932;2023-06-22T11:57:12;8;7;
49644;PMS5003;36494;50.730;-1.932;2023-06-22T11:59:37;11;11;
49644;PMS5003;36494;50.730;-1.932;2023-06-22T12:02:02;9;9;
49644;PMS5003;36494;50.730;-1.932;2023-06-22T12:04:27;9;9;
49644;PMS5003;36494;50.730;-1.932;2023-06-22T12:06:52;12;9;
49644;PMS5003;36494;50.730;-1.932;2023-06-22T12:09:18;8;7;
49644;PMS5003;36494;50.730;-1.932;2023-06-22T12:11:43;7;7;
49644;PMS5003;36494;50.730;-1.932;2023-06-22T12:14:09;8;7;
49644;PMS5003;36494;50.730;-1.932;2023-06-22T12:16:34;7;6;
49644;PMS5003;36494;50.730;-1.932;2023-06-22T12:19:00;8;8;
49644;PMS5003;36494;50.730;-1.932;2023-06-22T12:21:25;9;8;
49644;PMS5003;36494;50.730;-1.932;2023-06-22T12:23:51;7;7;
49644;PMS5003;36494;50.730;-1.932;2023-06-22T12:26:16;10;9;
49644;PMS5003;36494;50.730;-1.932;2023-06-22T12:28:42;8;8;
49644;PMS5003;36494;50.730;-1.932;2023-06-22T12:31:07;8;8;
49644;PMS5003;36494;50.730;-1.932;2023-06-22T12:33:33;6;6;
49644;PMS5003;36494;50.730;-1.932;2023-06-22T12:35:58;7;7;
49644;PMS5003;36494;50.730;-1.932;2023-06-22T12:38:24;7;7;
49644;PMS5003;36494;50.730;-1.932;2023-06-22T12:40:49;12;10;
49644;PMS5003;36494;50.730;-1.932;2023-06-22T12:43:14;8;8;
49644;PMS5003;36494;50.730;-1.932;2023-06-22T12:45:39;7;7;
49644;PMS5003;36494;50.730;-1.932;2023-06-22T12:48:05;8;8;
49644;PMS5003;36494;50.730;-1.932;2023-06-22T12:50:30;7;7;
49644;PMS5003;36494;50.730;-1.932;2023-06-22T12:52:55;8;8;
49644;PMS5003;36494;50.730;-1.932;2023-06-22T12:55:20;8;7;
49644;PMS5003;36494;50.730;-1.932;2023-06-22T12:57:45;7;7;
49644;PMS5003;36494;50.730;-1.932;2023-06-22T13:00:11;8;8;
49644;PMS5003;36494;50.730;-1.932;2023-06-22T13:02:36;8;7;
49644;PMS5003;36494;50.730;-1.932;2023-06-22T13:05:01;6;6;
49644;PMS5003;36494;50.730;-1.932;2023-06-22T13:07:27;8;8;
49644;PMS5003;36494;50.730;-1.932;2023-06-22T13:09:52;6;6;
49644;PMS5003;36494;50.730;-1.932;2023-06-22T13:12:17;7;7;
49644;PMS5003;36494;50.730;-1.932;2023-06-22T13:14:42;5;5;
49644;PMS5003;36494;50.730;-1.932;2023-06-22T13:17:07;7;7;
49644;PMS5003;36494;50.730;-1.932;2023-06-22T13:19:33;5;5;
49644;PMS5003;36494;50.730;-1.932;2023-06-22T13:21:59;7;7;
49644;PMS5003;36494;50.730;-1.932;2023-06-22T13:24:24;7;7;
49644;PMS5003;36494;50.730;-1.932;2023-06-22T13:26:49;8;8;
49644;PMS5003;36494;50.730;-1.932;2023-06-22T13:29:14;8;8;
49644;PMS5003;36494;50.730;-1.932;2023-06-22T13:31:39;7;7;
49644;PMS5003;36494;50.730;-1.932;2023-06-22T13:34:04;8;8;
49644;PMS5003;36494;50.730;-1.932;2023-06-22T13:36:30;8;8;
49644;PMS5003;36494;50.730;-1.932;2023-06-22T13:38:55;7;6;
49644;PMS5003;36494;50.730;-1.932;2023-06-22T13:41:21;8;8;
49644;PMS5003;36494;50.730;-1.932;2023-06-22T13:43:46;9;9;
49644;PMS5003;36494;50.730;-1.932;2023-06-22T13:46:11;7;7;
49644;PMS5003;36494;50.730;-1.932;2023-06-22T13:48:37;9;9;
49644;PMS5003;36494;50.730;-1.932;2023-06-22T13:51:03;10;9;
49644;PMS5003;36494;50.730;-1.932;2023-06-22T13:53:28;10;9;
49644;PMS5003;36494;50.730;-1.932;2023-06-22T13:55:53;7;7;
49644;PMS5003;36494;50.730;-1.932;2023-06-22T13:58:18;10;10;
49644;PMS5003;36494;50.730;-1.932;2023-06-22T14:00:43;8;8;
49644;PMS5003;36494;50.730;-1.932;2023-06-22T14:03:09;9;9;
49644;PMS5003;36494;50.730;-1.932;2023-06-22T14:05:34;9;9;
49644;PMS5003;36494;50.730;-1.932;2023-06-22T14:07:59;8;7;
49644;PMS5003;36494;50.730;-1.932;2023-06-22T14:10:24;8;8;
49644;PMS5003;36494;50.730;-1.932;2023-06-22T14:12:49;9;9;
49644;PMS5003;36494;50.730;-1.932;2023-06-22T14:15:15;8;7;
49644;PMS5003;36494;50.730;-1.932;2023-06-22T14:17:40;9;9;
49644;PMS5003;36494;50.730;-1.932;2023-06-22T14:20:06;8;8;
49644;PMS5003;36494;50.730;-1.932;2023-06-22T14:22:31;7;6;
49644;PMS5003;36494;50.730;-1.932;2023-06-22T14:24:56;7;7;
49644;PMS5003;36494;50.730;-1.932;2023-06-22T14:27:21;7;7;
49644;PMS5003;36494;50.730;-1.932;2023-06-22T14:29:47;7;6;
49644;PMS5003;36494;50.730;-1.932;2023-06-22T14:32:12;9;9;
49644;PMS5003;36494;50.730;-1.932;2023-06-22T14:34:37;6;6;
49644;PMS5003;36494;50.730;-1.932;2023-06-22T14:37:02;8;8;
49644;PMS5003;36494;50.730;-1.932;2023-06-22T14:39:27;8;7;
49644;PMS5003;36494;50.730;-1.932;2023-06-22T14:41:53;9;8;
49644;PMS5003;36494;50.730;-1.932;2023-06-22T14:44:18;7;7;
49644;PMS5003;36494;50.730;-1.932;2023-06-22T14:46:43;6;6;
49644;PMS5003;36494;50.730;-1.932;2023-06-22T14:49:08;7;7;
49644;PMS5003;36494;50.730;-1.932;2023-06-22T14:51:33;7;7;
49644;PMS5003;36494;50.730;-1.932;2023-06-22T14:53:59;8;7;
49644;PMS5003;36494;50.730;-1.932;2023-06-22T14:56:24;8;7;
49644;PMS5003;36494;50.730;-1.932;2023-06-22T14:58:49;7;7;
49644;PMS5003;36494;50.730;-1.932;2023-06-22T15:01:16;7;7;
49644;PMS5003;36494;50.730;-1.932;2023-06-22T15:03:39;9;8;
49644;PMS5003;36494;50.730;-1.932;2023-06-22T15:06:05;8;7;
49644;PMS5003;36494;50.730;-1.932;2023-06-22T15:08:30;10;10;
49644;PMS5003;36494;50.730;-1.932;2023-06-22T15:10:57;8;7;
49644;PMS5003;36494;50.730;-1.932;2023-06-22T15:13:20;6;6;
49644;PMS5003;36494;50.730;-1.932;2023-06-22T15:15:46;5;5;
49644;PMS5003;36494;50.730;-1.932;2023-06-22T15:18:11;5;5;
49644;PMS5003;36494;50.730;-1.932;2023-06-22T15:20:36;7;6;
49644;PMS5003;36494;50.730;-1.932;2023-06-22T15:23:02;7;7;
49644;PMS5003;36494;50.730;-1.932;2023-06-22T15:25:27;6;6;
49644;PMS5003;36494;50.730;-1.932;2023-06-22T15:27:52;6;6;
49644;PMS5003;36494;50.730;-1.932;2023-06-22T15:30:17;5;5;
49644;PMS5003;36494;50.730;-1.932;2023-06-22T15:32:43;5;4;
49644;PMS5003;36494;50.730;-1.932;2023-06-22T15:35:08;6;6;
49644;PMS5003;36494;50.730;-1.932;2023-06-22T15:37:33;4;4;
49644;PMS5003;36494;50.730;-1.932;2023-06-22T15:39:59;8;7;
49644;PMS5003;36494;50.730;-1.932;2023-06-22T15:42:24;7;7;
49644;PMS5003;36494;50.730;-1.932;2023-06-22T15:44:49;6;6;
49644;PMS5003;36494;50.730;-1.932;2023-06-22T15:47:14;6;6;
49644;PMS5003;36494;50.730;-1.932;2023-06-22T15:49:40;6;6;
49644;PMS5003;36494;50.730;-1.932;2023-06-22T15:52:05;5;5;
49644;PMS5003;36494;50.730;-1.932;2023-06-22T15:54:30;5;5;
49644;PMS5003;36494;50.730;-1.932;2023-06-22T15:56:55;5;5;
49644;PMS5003;36494;50.730;-1.932;2023-06-22T15:59:20;6;5;